sensor_id;sensor_type;location;lat;lon;timestamp;P1;durP1;ratioP1;P2;durP2;ratioP2
7169;SDS011;3626;42.656;23.312;2023-07-31T00:00:03;4.50;;;3.22;;
7169;SDS011;3626;42.656;23.312;2023-07-31T00:00:10;4.54;;;3.26;;
7169;SDS011;3626;42.656;23.312;2023-07-31T00:00:16;4.30;;;3.20;;
7169;SDS011;3626;42.656;23.312;2023-07-31T00:00:22;4.82;;;3.25;;
7169;SDS011;3626;42.656;23.312;2023-07-31T00:00:28;5.03;;;3.30;;
7169;SDS011;3626;42.656;23.312;2023-07-31T00:00:33;5.17;;;3.30;;
7169;SDS011;3626;42.656;23.312;2023-07-31T00:00:39;5.40;;;3.30;;
7169;SDS011;3626;42.656;23.312;2023-07-31T00:00:45;6.00;;;3.30;;
7169;SDS011;3626;42.656;23.312;2023-07-31T00:00:51;6.02;;;3.34;;
7169;SDS011;3626;42.656;23.312;2023-07-31T00:00:57;6.05;;;3.30;;
7169;SDS011;3626;42.656;23.312;2023-07-31T00:01:03;5.90;;;3.28;;
7169;SDS011;3626;42.656;23.312;2023-07-31T00:01:10;6.90;;;3.27;;
7169;SDS011;3626;42.656;23.312;2023-07-31T00:01:15;7.20;;;3.22;;
7169;SDS011;3626;42.656;23.312;2023-07-31T00:01:21;6.93;;;3.20;;
7169;SDS011;3626;42.656;23.312;2023-07-31T00:01:26;6.77;;;3.20;;
7169;SDS011;3626;42.656;23.312;2023-07-31T00:01:32;6.53;;;3.20;;
7169;SDS011;3626;42.656;23.312;2023-07-31T00:01:38;6.30;;;3.20;;
7169;SDS011;3626;42.656;23.312;2023-07-31T00:01:43;5.90;;;3.30;;
7169;SDS011;3626;42.656;23.312;2023-07-31T00:01:49;5.78;;;3.22;;
7169;SDS011;3626;42.656;23.312;2023-07-31T00:01:55;5.63;;;3.20;;
7169;SDS011;3626;42.656;23.312;2023-07-31T00:02:00;5.78;;;3.20;;
7169;SDS011;3626;42.656;23.312;2023-07-31T00:02:06;5.47;;;3.13;;
7169;SDS011;3626;42.656;23.312;2023-07-31T00:02:12;4.40;;;3.10;;
7169;SDS011;3626;42.656;23.312;2023-07-31T00:02:17;4.40;;;3.10;;
7169;SDS011;3626;42.656;23.312;2023-07-31T00:02:23;4.40;;;3.00;;
7169;SDS011;3626;42.656;23.312;2023-07-31T00:02:29;4.63;;;3.10;;
7169;SDS011;3626;42.656;23.312;2023-07-31T00:02:34;4.68;;;3.10;;
7169;SDS011;3626;42.656;23.312;2023-07-31T00:02:40;4.65;;;3.05;;
7169;SDS011;3626;42.656;23.312;2023-07-31T00:02:46;4.55;;;2.92;;
7169;SDS011;3626;42.656;23.312;2023-07-31T00:02:52;4.40;;;2.90;;
7169;SDS011;3626;42.656;23.312;2023-07-31T00:02:58;4.57;;;2.97;;
7169;SDS011;3626;42.656;23.312;2023-07-31T00:03:04;4.30;;;2.90;;
7169;SDS011;3626;42.656;23.312;2023-07-31T00:03:10;4.38;;;3.00;;
7169;SDS011;3626;42.656;23.312;2023-07-31T00:03:16;4.40;;;2.93;;
7169;SDS011;3626;42.656;23.312;2023-07-31T00:03:22;4.73;;;3.00;;
7169;SDS011;3626;42.656;23.312;2023-07-31T00:03:27;4.32;;;2.90;;
7169;SDS011;3626;42.656;23.312;2023-07-31T00:03:33;4.38;;;2.92;;
7169;SDS011;3626;42.656;23.312;2023-07-31T00:03:39;4.20;;;3.00;;
7169;SDS011;3626;42.656;23.312;2023-07-31T00:03:45;4.30;;;3.00;;
7169;SDS011;3626;42.656;23.312;2023-07-31T00:03:50;4.30;;;3.07;;
7169;SDS011;3626;42.656;23.312;2023-07-31T00:03:56;4.07;;;3.00;;
7169;SDS011;3626;42.656;23.312;2023-07-31T00:04:02;4.10;;;2.90;;
7169;SDS011;3626;42.656;23.312;2023-07-31T00:04:08;4.07;;;2.90;;
7169;SDS011;3626;42.656;23.312;2023-07-31T00:04:13;4.00;;;2.92;;
7169;SDS011;3626;42.656;23.312;2023-07-31T00:04:19;4.27;;;2.90;;
7169;SDS011;3626;42.656;23.312;2023-07-31T00:04:24;4.38;;;2.90;;
7169;SDS011;3626;42.656;23.312;2023-07-31T00:04:30;4.30;;;2.88;;
7169;SDS011;3626;42.656;23.312;2023-07-31T00:04:36;4.40;;;2.80;;
7169;SDS011;3626;42.656;23.312;2023-07-31T00:04:41;4.28;;;2.75;;
7169;SDS011;3626;42.656;23.312;2023-07-31T00:04:47;4.25;;;2.70;;
7169;SDS011;3626;42.656;23.312;2023-07-31T00:04:54;4.50;;;2.73;;
7169;SDS011;3626;42.656;23.312;2023-07-31T00:05:00;5.43;;;2.80;;
7169;SDS011;3626;42.656;23.312;2023-07-31T00:05:08;5.45;;;2.78;;
7169;SDS011;3626;42.656;23.312;2023-07-31T00:05:14;5.40;;;2.70;;
7169;SDS011;3626;42.656;23.312;2023-07-31T00:05:19;4.68;;;2.70;;
7169;SDS011;3626;42.656;23.312;2023-07-31T00:05:25;4.50;;;2.70;;
7169;SDS011;3626;42.656;23.312;2023-07-31T00:05:31;4.67;;;2.80;;
7169;SDS011;3626;42.656;23.312;2023-07-31T00:05:37;4.63;;;2.80;;
7169;SDS011;3626;42.656;23.312;2023-07-31T00:05:42;4.82;;;2.88;;
7169;SDS011;3626;42.656;23.312;2023-07-31T00:05:48;4.80;;;2.90;;
7169;SDS011;3626;42.656;23.312;2023-07-31T00:05:53;4.65;;;2.90;;
7169;SDS011;3626;42.656;23.312;2023-07-31T00:05:59;3.65;;;2.83;;
7169;SDS011;3626;42.656;23.312;2023-07-31T00:06:05;3.60;;;2.80;;
7169;SDS011;3626;42.656;23.312;2023-07-31T00:06:10;4.07;;;3.00;;
7169;SDS011;3626;42.656;23.312;2023-07-31T00:06:16;4.10;;;2.90;;
7169;SDS011;3626;42.656;23.312;2023-07-31T00:06:22;4.18;;;2.97;;
7169;SDS011;3626;42.656;23.312;2023-07-31T00:06:27;4.22;;;2.90;;
7169;SDS011;3626;42.656;23.312;2023-07-31T00:06:34;4.07;;;2.88;;
7169;SDS011;3626;42.656;23.312;2023-07-31T00:06:40;4.13;;;2.80;;
7169;SDS011;3626;42.656;23.312;2023-07-31T00:06:45;4.25;;;2.80;;
7169;SDS011;3626;42.656;23.312;2023-07-31T00:06:51;4.30;;;2.80;;
7169;SDS011;3626;42.656;23.312;2023-07-31T00:06:57;4.25;;;2.75;;
7169;SDS011;3626;42.656;23.312;2023-07-31T00:07:03;4.40;;;2.75;;
7169;SDS011;3626;42.656;23.312;2023-07-31T00:07:11;4.25;;;2.70;;
7169;SDS011;3626;42.656;23.312;2023-07-31T00:07:17;4.13;;;2.70;;
7169;SDS011;3626;42.656;23.312;2023-07-31T00:07:23;4.03;;;2.60;;
7169;SDS011;3626;42.656;23.312;2023-07-31T00:07:28;4.40;;;2.60;;
7169;SDS011;3626;42.656;23.312;2023-07-31T00:07:34;4.40;;;2.60;;
7169;SDS011;3626;42.656;23.312;2023-07-31T00:07:40;4.13;;;2.60;;
7169;SDS011;3626;42.656;23.312;2023-07-31T00:07:45;4.18;;;2.70;;
7169;SDS011;3626;42.656;23.312;2023-07-31T00:07:51;4.20;;;2.70;;
7169;SDS011;3626;42.656;23.312;2023-07-31T00:07:57;4.20;;;2.70;;
7169;SDS011;3626;42.656;23.312;2023-07-31T00:08:02;4.18;;;2.80;;
7169;SDS011;3626;42.656;23.312;2023-07-31T00:08:09;4.27;;;2.80;;
7169;SDS011;3626;42.656;23.312;2023-07-31T00:08:15;4.74;;;2.76;;
7169;SDS011;3626;42.656;23.312;2023-07-31T00:08:20;4.93;;;2.85;;
7169;SDS011;3626;42.656;23.312;2023-07-31T00:08:26;4.67;;;2.90;;
7169;SDS011;3626;42.656;23.312;2023-07-31T00:08:32;4.88;;;2.90;;
7169;SDS011;3626;42.656;23.312;2023-07-31T00:08:38;5.00;;;2.90;;
7169;SDS011;3626;42.656;23.312;2023-07-31T00:08:44;4.87;;;2.90;;
7169;SDS011;3626;42.656;23.312;2023-07-31T00:08:50;4.88;;;2.95;;
7169;SDS011;3626;42.656;23.312;2023-07-31T00:08:55;4.97;;;3.00;;
7169;SDS011;3626;42.656;23.312;2023-07-31T00:09:01;4.97;;;3.00;;
7169;SDS011;3626;42.656;23.312;2023-07-31T00:09:07;4.70;;;2.90;;
7169;SDS011;3626;42.656;23.312;2023-07-31T00:09:13;4.25;;;3.00;;
7169;SDS011;3626;42.656;23.312;2023-07-31T00:09:18;4.27;;;3.00;;
7169;SDS011;3626;42.656;23.312;2023-07-31T00:09:24;4.20;;;3.00;;
7169;SDS011;3626;42.656;23.312;2023-07-31T00:09:30;4.03;;;3.00;;
7169;SDS011;3626;42.656;23.312;2023-07-31T00:09:37;3.93;;;3.00;;
7169;SDS011;3626;42.656;23.312;2023-07-31T00:09:42;4.54;;;3.04;;
7169;SDS011;3626;42.656;23.312;2023-07-31T00:09:48;5.47;;;3.10;;
7169;SDS011;3626;42.656;23.312;2023-07-31T00:09:54;5.40;;;3.10;;
7169;SDS011;3626;42.656;23.312;2023-07-31T00:10:01;5.70;;;3.10;;
7169;SDS011;3626;42.656;23.312;2023-07-31T00:10:08;5.97;;;3.20;;
7169;SDS011;3626;42.656;23.312;2023-07-31T00:10:14;6.02;;;3.20;;
7169;SDS011;3626;42.656;23.312;2023-07-31T00:10:19;5.93;;;3.20;;
7169;SDS011;3626;42.656;23.312;2023-07-31T00:10:25;5.95;;;3.20;;
7169;SDS011;3626;42.656;23.312;2023-07-31T00:10:31;6.55;;;3.30;;
7169;SDS011;3626;42.656;23.312;2023-07-31T00:10:36;6.70;;;3.30;;
7169;SDS011;3626;42.656;23.312;2023-07-31T00:10:42;5.97;;;3.30;;
7169;SDS011;3626;42.656;23.312;2023-07-31T00:10:50;5.47;;;3.28;;
7169;SDS011;3626;42.656;23.312;2023-07-31T00:10:56;5.68;;;3.35;;
7169;SDS011;3626;42.656;23.312;2023-07-31T00:11:02;5.72;;;3.50;;
7169;SDS011;3626;42.656;23.312;2023-07-31T00:11:07;5.70;;;3.50;;
7169;SDS011;3626;42.656;23.312;2023-07-31T00:11:13;5.63;;;3.58;;
7169;SDS011;3626;42.656;23.312;2023-07-31T00:11:19;5.53;;;3.58;;
7169;SDS011;3626;42.656;23.312;2023-07-31T00:11:24;5.83;;;3.53;;
7169;SDS011;3626;42.656;23.312;2023-07-31T00:11:30;5.10;;;3.40;;
7169;SDS011;3626;42.656;23.312;2023-07-31T00:11:36;4.95;;;3.40;;
7169;SDS011;3626;42.656;23.312;2023-07-31T00:11:41;5.00;;;3.30;;
7169;SDS011;3626;42.656;23.312;2023-07-31T00:11:48;4.78;;;3.30;;
7169;SDS011;3626;42.656;23.312;2023-07-31T00:11:54;4.50;;;3.22;;
7169;SDS011;3626;42.656;23.312;2023-07-31T00:11:59;4.30;;;3.17;;
7169;SDS011;3626;42.656;23.312;2023-07-31T00:12:05;4.20;;;3.03;;
7169;SDS011;3626;42.656;23.312;2023-07-31T00:12:11;4.78;;;3.08;;
7169;SDS011;3626;42.656;23.312;2023-07-31T00:12:17;5.78;;;2.95;;
7169;SDS011;3626;42.656;23.312;2023-07-31T00:12:23;5.63;;;2.90;;
7169;SDS011;3626;42.656;23.312;2023-07-31T00:12:28;5.80;;;3.05;;
7169;SDS011;3626;42.656;23.312;2023-07-31T00:12:34;5.80;;;3.05;;
7169;SDS011;3626;42.656;23.312;2023-07-31T00:12:43;5.75;;;3.03;;
7169;SDS011;3626;42.656;23.312;2023-07-31T00:12:50;5.50;;;3.00;;
7169;SDS011;3626;42.656;23.312;2023-07-31T00:12:55;5.50;;;2.97;;
7169;SDS011;3626;42.656;23.312;2023-07-31T00:13:01;5.50;;;2.90;;
7169;SDS011;3626;42.656;23.312;2023-07-31T00:13:07;5.33;;;2.87;;
7169;SDS011;3626;42.656;23.312;2023-07-31T00:13:12;4.57;;;2.80;;
7169;SDS011;3626;42.656;23.312;2023-07-31T00:13:18;3.90;;;2.80;;
7169;SDS011;3626;42.656;23.312;2023-07-31T00:13:24;3.63;;;2.70;;
7169;SDS011;3626;42.656;23.312;2023-07-31T00:13:30;3.55;;;2.70;;
7169;SDS011;3626;42.656;23.312;2023-07-31T00:13:35;3.60;;;2.80;;
7169;SDS011;3626;42.656;23.312;2023-07-31T00:13:41;3.60;;;2.90;;
7169;SDS011;3626;42.656;23.312;2023-07-31T00:13:48;3.77;;;3.00;;
7169;SDS011;3626;42.656;23.312;2023-07-31T00:13:53;3.85;;;3.05;;
7169;SDS011;3626;42.656;23.312;2023-07-31T00:13:59;4.30;;;3.25;;
7169;SDS011;3626;42.656;23.312;2023-07-31T00:14:04;4.13;;;3.13;;
7169;SDS011;3626;42.656;23.312;2023-07-31T00:14:10;4.05;;;3.13;;
7169;SDS011;3626;42.656;23.312;2023-07-31T00:14:16;4.03;;;3.10;;
7169;SDS011;3626;42.656;23.312;2023-07-31T00:14:21;4.20;;;3.10;;
7169;SDS011;3626;42.656;23.312;2023-07-31T00:14:27;4.13;;;3.10;;
7169;SDS011;3626;42.656;23.312;2023-07-31T00:14:33;4.30;;;3.10;;
7169;SDS011;3626;42.656;23.312;2023-07-31T00:14:38;4.40;;;3.03;;
7169;SDS011;3626;42.656;23.312;2023-07-31T00:14:44;4.40;;;3.00;;
7169;SDS011;3626;42.656;23.312;2023-07-31T00:14:50;4.40;;;3.00;;
7169;SDS011;3626;42.656;23.312;2023-07-31T00:14:55;4.43;;;2.92;;
7169;SDS011;3626;42.656;23.312;2023-07-31T00:15:01;4.60;;;3.05;;
7169;SDS011;3626;42.656;23.312;2023-07-31T00:15:08;4.88;;;3.10;;
7169;SDS011;3626;42.656;23.312;2023-07-31T00:15:15;4.97;;;3.10;;
7169;SDS011;3626;42.656;23.312;2023-07-31T00:15:21;5.10;;;3.27;;
7169;SDS011;3626;42.656;23.312;2023-07-31T00:15:26;5.40;;;3.40;;
7169;SDS011;3626;42.656;23.312;2023-07-31T00:15:32;5.22;;;3.33;;
7169;SDS011;3626;42.656;23.312;2023-07-31T00:15:38;5.27;;;3.47;;
7169;SDS011;3626;42.656;23.312;2023-07-31T00:15:43;5.15;;;3.40;;
7169;SDS011;3626;42.656;23.312;2023-07-31T00:15:49;5.47;;;3.40;;
7169;SDS011;3626;42.656;23.312;2023-07-31T00:15:55;5.40;;;3.40;;
7169;SDS011;3626;42.656;23.312;2023-07-31T00:16:01;5.00;;;3.30;;
7169;SDS011;3626;42.656;23.312;2023-07-31T00:16:07;4.88;;;3.25;;
7169;SDS011;3626;42.656;23.312;2023-07-31T00:16:13;5.10;;;3.20;;
7169;SDS011;3626;42.656;23.312;2023-07-31T00:16:19;4.80;;;3.20;;
7169;SDS011;3626;42.656;23.312;2023-07-31T00:16:25;4.43;;;3.00;;
7169;SDS011;3626;42.656;23.312;2023-07-31T00:16:31;4.65;;;3.20;;
7169;SDS011;3626;42.656;23.312;2023-07-31T00:16:36;4.88;;;3.20;;
7169;SDS011;3626;42.656;23.312;2023-07-31T00:16:42;5.10;;;3.20;;
7169;SDS011;3626;42.656;23.312;2023-07-31T00:16:48;6.35;;;3.15;;
7169;SDS011;3626;42.656;23.312;2023-07-31T00:16:53;6.20;;;3.10;;
7169;SDS011;3626;42.656;23.312;2023-07-31T00:16:59;6.20;;;3.10;;
7169;SDS011;3626;42.656;23.312;2023-07-31T00:17:05;6.16;;;3.08;;
7169;SDS011;3626;42.656;23.312;2023-07-31T00:17:11;6.13;;;3.20;;
7169;SDS011;3626;42.656;23.312;2023-07-31T00:17:17;6.13;;;3.10;;
7169;SDS011;3626;42.656;23.312;2023-07-31T00:17:23;6.07;;;3.13;;
7169;SDS011;3626;42.656;23.312;2023-07-31T00:17:28;6.07;;;3.13;;
7169;SDS011;3626;42.656;23.312;2023-07-31T00:17:34;5.97;;;3.03;;
7169;SDS011;3626;42.656;23.312;2023-07-31T00:17:40;5.85;;;3.00;;
7169;SDS011;3626;42.656;23.312;2023-07-31T00:17:46;5.20;;;3.08;;
7169;SDS011;3626;42.656;23.312;2023-07-31T00:17:52;5.43;;;3.20;;
7169;SDS011;3626;42.656;23.312;2023-07-31T00:17:58;5.50;;;3.17;;
7169;SDS011;3626;42.656;23.312;2023-07-31T00:18:04;5.43;;;3.05;;
7169;SDS011;3626;42.656;23.312;2023-07-31T00:18:09;5.40;;;3.00;;
7169;SDS011;3626;42.656;23.312;2023-07-31T00:18:15;5.20;;;3.00;;
7169;SDS011;3626;42.656;23.312;2023-07-31T00:18:21;5.40;;;3.05;;
7169;SDS011;3626;42.656;23.312;2023-07-31T00:18:26;5.50;;;3.10;;
7169;SDS011;3626;42.656;23.312;2023-07-31T00:18:32;5.33;;;3.10;;
7169;SDS011;3626;42.656;23.312;2023-07-31T00:18:38;5.15;;;3.10;;
7169;SDS011;3626;42.656;23.312;2023-07-31T00:18:43;5.10;;;3.10;;
7169;SDS011;3626;42.656;23.312;2023-07-31T00:18:50;4.38;;;3.05;;
7169;SDS011;3626;42.656;23.312;2023-07-31T00:18:56;4.55;;;2.90;;
7169;SDS011;3626;42.656;23.312;2023-07-31T00:19:01;4.90;;;3.03;;
7169;SDS011;3626;42.656;23.312;2023-07-31T00:19:07;5.10;;;3.22;;
7169;SDS011;3626;42.656;23.312;2023-07-31T00:19:12;5.07;;;3.30;;
7169;SDS011;3626;42.656;23.312;2023-07-31T00:19:18;5.27;;;3.40;;
7169;SDS011;3626;42.656;23.312;2023-07-31T00:19:24;4.93;;;3.30;;
7169;SDS011;3626;42.656;23.312;2023-07-31T00:19:29;4.90;;;3.20;;
7169;SDS011;3626;42.656;23.312;2023-07-31T00:19:35;4.97;;;3.17;;
7169;SDS011;3626;42.656;23.312;2023-07-31T00:19:41;5.00;;;3.08;;
7169;SDS011;3626;42.656;23.312;2023-07-31T00:19:46;5.00;;;3.08;;
7169;SDS011;3626;42.656;23.312;2023-07-31T00:19:54;4.76;;;3.10;;
7169;SDS011;3626;42.656;23.312;2023-07-31T00:20:00;4.15;;;3.05;;
7169;SDS011;3626;42.656;23.312;2023-07-31T00:20:05;4.03;;;2.93;;
7169;SDS011;3626;42.656;23.312;2023-07-31T00:20:12;4.90;;;2.87;;
7169;SDS011;3626;42.656;23.312;2023-07-31T00:20:17;4.95;;;2.78;;
7169;SDS011;3626;42.656;23.312;2023-07-31T00:20:23;4.97;;;2.80;;
7169;SDS011;3626;42.656;23.312;2023-07-31T00:20:29;5.13;;;2.75;;
7169;SDS011;3626;42.656;23.312;2023-07-31T00:20:35;5.30;;;2.80;;
7169;SDS011;3626;42.656;23.312;2023-07-31T00:20:42;5.30;;;3.00;;
7169;SDS011;3626;42.656;23.312;2023-07-31T00:20:48;5.25;;;2.90;;
7169;SDS011;3626;42.656;23.312;2023-07-31T00:20:53;5.30;;;3.00;;
7169;SDS011;3626;42.656;23.312;2023-07-31T00:20:59;5.35;;;3.00;;
7169;SDS011;3626;42.656;23.312;2023-07-31T00:21:05;5.28;;;3.00;;
7169;SDS011;3626;42.656;23.312;2023-07-31T00:21:10;4.60;;;2.97;;
7169;SDS011;3626;42.656;23.312;2023-07-31T00:21:16;4.25;;;3.15;;
7169;SDS011;3626;42.656;23.312;2023-07-31T00:21:22;4.43;;;3.30;;
7169;SDS011;3626;42.656;23.312;2023-07-31T00:21:27;4.60;;;3.40;;
7169;SDS011;3626;42.656;23.312;2023-07-31T00:21:33;4.43;;;3.33;;
7169;SDS011;3626;42.656;23.312;2023-07-31T00:21:38;4.30;;;3.20;;
7169;SDS011;3626;42.656;23.312;2023-07-31T00:21:44;4.45;;;3.25;;
7169;SDS011;3626;42.656;23.312;2023-07-31T00:21:50;4.65;;;3.30;;
7169;SDS011;3626;42.656;23.312;2023-07-31T00:21:55;4.70;;;3.30;;
7169;SDS011;3626;42.656;23.312;2023-07-31T00:22:01;5.10;;;3.40;;
7169;SDS011;3626;42.656;23.312;2023-07-31T00:22:07;5.20;;;3.40;;
7169;SDS011;3626;42.656;23.312;2023-07-31T00:22:12;5.23;;;3.33;;
7169;SDS011;3626;42.656;23.312;2023-07-31T00:22:18;5.13;;;3.20;;
7169;SDS011;3626;42.656;23.312;2023-07-31T00:22:24;5.13;;;3.20;;
7169;SDS011;3626;42.656;23.312;2023-07-31T00:22:29;5.10;;;3.30;;
7169;SDS011;3626;42.656;23.312;2023-07-31T00:22:36;5.14;;;3.32;;
7169;SDS011;3626;42.656;23.312;2023-07-31T00:22:42;5.00;;;3.30;;
7169;SDS011;3626;42.656;23.312;2023-07-31T00:22:47;4.90;;;3.20;;
7169;SDS011;3626;42.656;23.312;2023-07-31T00:22:53;5.10;;;3.13;;
7169;SDS011;3626;42.656;23.312;2023-07-31T00:22:58;5.10;;;3.20;;
7169;SDS011;3626;42.656;23.312;2023-07-31T00:23:04;4.97;;;3.15;;
7169;SDS011;3626;42.656;23.312;2023-07-31T00:23:10;4.95;;;3.20;;
7169;SDS011;3626;42.656;23.312;2023-07-31T00:23:15;5.10;;;3.20;;
7169;SDS011;3626;42.656;23.312;2023-07-31T00:23:21;5.43;;;3.17;;
7169;SDS011;3626;42.656;23.312;2023-07-31T00:23:27;5.20;;;3.05;;
7169;SDS011;3626;42.656;23.312;2023-07-31T00:23:32;5.10;;;3.00;;
7169;SDS011;3626;42.656;23.312;2023-07-31T00:23:38;5.07;;;3.00;;
7169;SDS011;3626;42.656;23.312;2023-07-31T00:23:44;5.00;;;2.97;;
7169;SDS011;3626;42.656;23.312;2023-07-31T00:23:49;4.90;;;2.90;;
7169;SDS011;3626;42.656;23.312;2023-07-31T00:23:55;4.55;;;2.95;;
7169;SDS011;3626;42.656;23.312;2023-07-31T00:24:01;4.57;;;3.00;;
7169;SDS011;3626;42.656;23.312;2023-07-31T00:24:06;4.50;;;2.90;;
7169;SDS011;3626;42.656;23.312;2023-07-31T00:24:12;4.97;;;3.00;;
7169;SDS011;3626;42.656;23.312;2023-07-31T00:24:17;4.67;;;3.10;;
7169;SDS011;3626;42.656;23.312;2023-07-31T00:24:23;4.70;;;3.10;;
7169;SDS011;3626;42.656;23.312;2023-07-31T00:24:29;4.82;;;3.17;;
7169;SDS011;3626;42.656;23.312;2023-07-31T00:24:37;5.10;;;3.28;;
7169;SDS011;3626;42.656;23.312;2023-07-31T00:24:42;5.28;;;3.40;;
7169;SDS011;3626;42.656;23.312;2023-07-31T00:24:48;5.95;;;3.40;;
7169;SDS011;3626;42.656;23.312;2023-07-31T00:24:54;5.97;;;3.40;;
7169;SDS011;3626;42.656;23.312;2023-07-31T00:24:59;6.27;;;3.43;;
7169;SDS011;3626;42.656;23.312;2023-07-31T00:25:05;6.43;;;3.55;;
7169;SDS011;3626;42.656;23.312;2023-07-31T00:25:11;6.05;;;3.50;;
7169;SDS011;3626;42.656;23.312;2023-07-31T00:25:17;5.80;;;3.40;;
7169;SDS011;3626;42.656;23.312;2023-07-31T00:25:23;5.90;;;3.50;;
7169;SDS011;3626;42.656;23.312;2023-07-31T00:25:28;6.10;;;3.50;;
7169;SDS011;3626;42.656;23.312;2023-07-31T00:25:34;6.10;;;3.53;;
7169;SDS011;3626;42.656;23.312;2023-07-31T00:25:40;6.30;;;3.60;;
7169;SDS011;3626;42.656;23.312;2023-07-31T00:25:47;6.20;;;3.68;;
7169;SDS011;3626;42.656;23.312;2023-07-31T00:25:52;5.80;;;3.70;;
7169;SDS011;3626;42.656;23.312;2023-07-31T00:25:59;5.60;;;3.60;;
7169;SDS011;3626;42.656;23.312;2023-07-31T00:26:05;5.40;;;3.53;;
7169;SDS011;3626;42.656;23.312;2023-07-31T00:26:10;5.35;;;3.50;;
7169;SDS011;3626;42.656;23.312;2023-07-31T00:26:16;5.90;;;3.60;;
7169;SDS011;3626;42.656;23.312;2023-07-31T00:26:21;5.80;;;3.53;;
7169;SDS011;3626;42.656;23.312;2023-07-31T00:26:27;5.65;;;3.50;;
7169;SDS011;3626;42.656;23.312;2023-07-31T00:26:33;5.77;;;3.47;;
7169;SDS011;3626;42.656;23.312;2023-07-31T00:26:38;5.70;;;3.30;;
7169;SDS011;3626;42.656;23.312;2023-07-31T00:26:44;5.57;;;3.38;;
7169;SDS011;3626;42.656;23.312;2023-07-31T00:26:50;6.27;;;3.30;;
7169;SDS011;3626;42.656;23.312;2023-07-31T00:26:55;6.50;;;3.40;;
7169;SDS011;3626;42.656;23.312;2023-07-31T00:27:01;6.60;;;3.35;;
7169;SDS011;3626;42.656;23.312;2023-07-31T00:27:07;7.10;;;3.50;;
7169;SDS011;3626;42.656;23.312;2023-07-31T00:27:12;6.95;;;3.50;;
7169;SDS011;3626;42.656;23.312;2023-07-31T00:27:18;6.55;;;3.45;;
7169;SDS011;3626;42.656;23.312;2023-07-31T00:27:24;6.77;;;3.50;;
7169;SDS011;3626;42.656;23.312;2023-07-31T00:27:29;7.10;;;3.50;;
7169;SDS011;3626;42.656;23.312;2023-07-31T00:27:35;7.40;;;3.60;;
7169;SDS011;3626;42.656;23.312;2023-07-31T00:27:41;7.40;;;3.70;;
7169;SDS011;3626;42.656;23.312;2023-07-31T00:27:49;6.40;;;3.60;;
7169;SDS011;3626;42.656;23.312;2023-07-31T00:27:55;6.20;;;3.60;;
7169;SDS011;3626;42.656;23.312;2023-07-31T00:28:00;6.13;;;3.63;;
7169;SDS011;3626;42.656;23.312;2023-07-31T00:28:06;5.63;;;3.50;;
7169;SDS011;3626;42.656;23.312;2023-07-31T00:28:12;5.63;;;3.50;;
7169;SDS011;3626;42.656;23.312;2023-07-31T00:28:17;5.90;;;3.60;;
7169;SDS011;3626;42.656;23.312;2023-07-31T00:28:23;5.83;;;3.60;;
7169;SDS011;3626;42.656;23.312;2023-07-31T00:28:29;5.35;;;3.65;;
7169;SDS011;3626;42.656;23.312;2023-07-31T00:28:34;4.80;;;3.70;;
7169;SDS011;3626;42.656;23.312;2023-07-31T00:28:40;4.80;;;3.67;;
7169;SDS011;3626;42.656;23.312;2023-07-31T00:28:46;5.43;;;3.78;;
7169;SDS011;3626;42.656;23.312;2023-07-31T00:28:51;6.70;;;3.80;;
7169;SDS011;3626;42.656;23.312;2023-07-31T00:28:57;6.70;;;3.80;;
7169;SDS011;3626;42.656;23.312;2023-07-31T00:29:02;6.70;;;3.80;;
7169;SDS011;3626;42.656;23.312;2023-07-31T00:29:08;6.63;;;3.80;;
7169;SDS011;3626;42.656;23.312;2023-07-31T00:29:14;6.83;;;3.80;;
7169;SDS011;3626;42.656;23.312;2023-07-31T00:29:20;6.53;;;3.70;;
7169;SDS011;3626;42.656;23.312;2023-07-31T00:29:25;6.70;;;3.70;;
7169;SDS011;3626;42.656;23.312;2023-07-31T00:29:32;6.77;;;3.70;;
7169;SDS011;3626;42.656;23.312;2023-07-31T00:29:37;6.80;;;3.67;;
7169;SDS011;3626;42.656;23.312;2023-07-31T00:29:43;6.85;;;3.67;;
7169;SDS011;3626;42.656;23.312;2023-07-31T00:29:49;5.67;;;3.60;;
7169;SDS011;3626;42.656;23.312;2023-07-31T00:29:54;5.75;;;3.53;;
7169;SDS011;3626;42.656;23.312;2023-07-31T00:30:00;6.07;;;3.50;;
7169;SDS011;3626;42.656;23.312;2023-07-31T00:30:06;6.60;;;3.60;;
7169;SDS011;3626;42.656;23.312;2023-07-31T00:30:12;6.50;;;3.60;;
7169;SDS011;3626;42.656;23.312;2023-07-31T00:30:18;6.65;;;3.55;;
7169;SDS011;3626;42.656;23.312;2023-07-31T00:30:23;6.65;;;3.60;;
7169;SDS011;3626;42.656;23.312;2023-07-31T00:30:30;6.82;;;3.60;;
7169;SDS011;3626;42.656;23.312;2023-07-31T00:30:36;7.07;;;3.80;;
7169;SDS011;3626;42.656;23.312;2023-07-31T00:30:41;6.95;;;3.80;;
7169;SDS011;3626;42.656;23.312;2023-07-31T00:30:47;6.83;;;3.90;;
7169;SDS011;3626;42.656;23.312;2023-07-31T00:30:52;6.43;;;3.97;;
7169;SDS011;3626;42.656;23.312;2023-07-31T00:30:58;6.37;;;4.10;;
7169;SDS011;3626;42.656;23.312;2023-07-31T00:31:04;5.82;;;4.00;;
7169;SDS011;3626;42.656;23.312;2023-07-31T00:31:09;5.93;;;4.13;;
7169;SDS011;3626;42.656;23.312;2023-07-31T00:31:15;5.73;;;4.20;;
7169;SDS011;3626;42.656;23.312;2023-07-31T00:31:22;6.33;;;4.37;;
7169;SDS011;3626;42.656;23.312;2023-07-31T00:31:27;6.55;;;4.53;;
7169;SDS011;3626;42.656;23.312;2023-07-31T00:31:33;6.30;;;4.40;;
7169;SDS011;3626;42.656;23.312;2023-07-31T00:31:39;6.30;;;4.30;;
7169;SDS011;3626;42.656;23.312;2023-07-31T00:31:44;6.40;;;4.30;;
7169;SDS011;3626;42.656;23.312;2023-07-31T00:31:50;6.60;;;4.37;;
7169;SDS011;3626;42.656;23.312;2023-07-31T00:31:56;6.80;;;4.50;;
7169;SDS011;3626;42.656;23.312;2023-07-31T00:32:01;6.85;;;4.53;;
7169;SDS011;3626;42.656;23.312;2023-07-31T00:32:07;6.75;;;4.50;;
7169;SDS011;3626;42.656;23.312;2023-07-31T00:32:13;6.77;;;4.40;;
7169;SDS011;3626;42.656;23.312;2023-07-31T00:32:19;6.70;;;4.38;;
7169;SDS011;3626;42.656;23.312;2023-07-31T00:32:24;5.97;;;4.20;;
7169;SDS011;3626;42.656;23.312;2023-07-31T00:32:30;5.90;;;4.20;;
7169;SDS011;3626;42.656;23.312;2023-07-31T00:32:35;5.75;;;4.28;;
7169;SDS011;3626;42.656;23.312;2023-07-31T00:32:41;5.70;;;4.30;;
7169;SDS011;3626;42.656;23.312;2023-07-31T00:32:47;5.70;;;4.40;;
7169;SDS011;3626;42.656;23.312;2023-07-31T00:32:52;5.60;;;4.22;;
7169;SDS011;3626;42.656;23.312;2023-07-31T00:32:58;5.63;;;4.27;;
7169;SDS011;3626;42.656;23.312;2023-07-31T00:33:04;5.80;;;4.40;;
7169;SDS011;3626;42.656;23.312;2023-07-31T00:33:09;5.80;;;4.50;;
7169;SDS011;3626;42.656;23.312;2023-07-31T00:33:15;5.88;;;4.50;;
7169;SDS011;3626;42.656;23.312;2023-07-31T00:33:22;6.16;;;4.52;;
7169;SDS011;3626;42.656;23.312;2023-07-31T00:33:27;6.35;;;4.50;;
7169;SDS011;3626;42.656;23.312;2023-07-31T00:33:34;6.43;;;4.40;;
7169;SDS011;3626;42.656;23.312;2023-07-31T00:33:40;6.66;;;4.56;;
7169;SDS011;3626;42.656;23.312;2023-07-31T00:33:45;6.73;;;4.50;;
7169;SDS011;3626;42.656;23.312;2023-07-31T00:33:51;6.68;;;4.50;;
7169;SDS011;3626;42.656;23.312;2023-07-31T00:33:57;6.68;;;4.47;;
7169;SDS011;3626;42.656;23.312;2023-07-31T00:34:02;6.30;;;4.20;;
7169;SDS011;3626;42.656;23.312;2023-07-31T00:34:08;6.30;;;4.10;;
7169;SDS011;3626;42.656;23.312;2023-07-31T00:34:14;6.05;;;4.10;;
7169;SDS011;3626;42.656;23.312;2023-07-31T00:34:19;5.80;;;4.00;;
7169;SDS011;3626;42.656;23.312;2023-07-31T00:34:25;5.80;;;4.03;;
7169;SDS011;3626;42.656;23.312;2023-07-31T00:34:31;5.93;;;4.13;;
7169;SDS011;3626;42.656;23.312;2023-07-31T00:34:37;5.90;;;4.18;;
7169;SDS011;3626;42.656;23.312;2023-07-31T00:34:43;5.78;;;4.10;;
7169;SDS011;3626;42.656;23.312;2023-07-31T00:34:48;5.80;;;4.20;;
7169;SDS011;3626;42.656;23.312;2023-07-31T00:34:54;5.78;;;4.18;;
7169;SDS011;3626;42.656;23.312;2023-07-31T00:35:01;5.70;;;4.20;;
7169;SDS011;3626;42.656;23.312;2023-07-31T00:35:07;5.70;;;4.20;;
7169;SDS011;3626;42.656;23.312;2023-07-31T00:35:12;5.85;;;4.28;;
7169;SDS011;3626;42.656;23.312;2023-07-31T00:35:18;5.88;;;4.32;;
7169;SDS011;3626;42.656;23.312;2023-07-31T00:35:24;5.57;;;4.20;;
7169;SDS011;3626;42.656;23.312;2023-07-31T00:35:29;5.63;;;4.00;;
7169;SDS011;3626;42.656;23.312;2023-07-31T00:35:35;5.60;;;3.90;;